Time;durP1;ratioP1;P1;durP2;ratioP2;P2;SDS_P1;SDS_P2;PMS_P1;PMS_P2;Temp;Humidity;BMP_temperature;BMP_pressure;BME280_temperature;BME280_humidity;BME280_pressure;Samples;Min_cycle;Max_cycle;Signal;HPM_P1;HPM_P2
2023/04/05 00:02:17;;;;;;;11.93;6.43;;;;;;;;;;5061905;28;20285;-72
2023/04/05 00:04:49;;;;;;;11.43;6.43;;;;;;;;;;5064893;28;20295;-72
2023/04/05 00:07:16;;;;;;;10.88;6.05;;;;;;;;;;5062935;28;20024;-71
2023/04/05 00:09:41;;;;;;;10.77;6.38;;;;;;;;;;5043077;28;20025;-72
2023/04/05 00:12:07;;;;;;;12.45;6.13;;;;;;;;;;5061891;28;20035;-71
2023/04/05 00:14:32;;;;;;;9.93;5.85;;;;;;;;;;5038112;28;20032;-72
2023/04/05 00:16:58;;;;;;;13.02;6.38;;;;;;;;;;5066846;28;20055;-72
2023/04/05 00:19:23;;;;;;;18.57;6.70;;;;;;;;;;5070577;28;20082;-72
2023/04/05 00:21:48;;;;;;;11.57;6.83;;;;;;;;;;5070055;28;20288;-72
2023/04/05 00:24:14;;;;;;;16.85;7.15;;;;;;;;;;5066190;28;20288;-70
2023/04/05 00:26:41;;;;;;;12.77;6.45;;;;;;;;;;5052142;28;20099;-70
2023/04/05 00:29:06;;;;;;;10.30;6.38;;;;;;;;;;5067546;28;20045;-71
2023/04/05 00:31:32;;;;;;;11.30;7.07;;;;;;;;;;5068890;28;20028;-69
2023/04/05 00:33:57;;;;;;;11.87;6.50;;;;;;;;;;5051440;28;20790;-72
2023/04/05 00:36:22;;;;;;;11.90;6.10;;;;;;;;;;5062074;28;20289;-71
2023/04/05 00:38:48;;;;;;;12.43;6.60;;;;;;;;;;5042444;28;20282;-71
2023/04/05 00:41:14;;;;;;;11.00;6.25;;;;;;;;;;5061687;28;20372;-71
2023/04/05 00:43:39;;;;;;;11.38;6.22;;;;;;;;;;5059625;28;20134;-70
2023/04/05 00:46:05;;;;;;;9.57;6.22;;;;;;;;;;5069183;28;20513;-71
2023/04/05 00:48:31;;;;;;;10.23;6.32;;;;;;;;;;5065245;28;20565;-71
2023/04/05 00:50:56;;;;;;;11.05;6.63;;;;;;;;;;5065499;28;20379;-70
2023/04/05 00:53:22;;;;;;;11.95;6.05;;;;;;;;;;5063111;28;20102;-71
2023/04/05 00:55:47;;;;;;;11.10;6.53;;;;;;;;;;5039580;28;20835;-71
2023/04/05 00:58:13;;;;;;;13.32;6.60;;;;;;;;;;5066496;28;20191;-71
2023/04/05 01:00:39;;;;;;;11.13;5.97;;;;;;;;;;5060120;28;20040;-71
2023/04/05 01:03:06;;;;;;;12.48;6.35;;;;;;;;;;5060851;28;20039;-71
2023/04/05 01:05:35;;;;;;;11.48;6.47;;;;;;;;;;5059121;28;20028;-70
2023/04/05 01:08:03;;;;;;;12.70;6.65;;;;;;;;;;5062823;28;20037;-70
2023/04/05 01:10:33;;;;;;;10.10;6.22;;;;;;;;;;5065661;28;20040;-71
2023/04/05 01:12:59;;;;;;;12.77;7.18;;;;;;;;;;5067158;28;20063;-71
2023/04/05 01:15:24;;;;;;;12.50;6.43;;;;;;;;;;5067868;28;20063;-71
2023/04/05 01:17:52;;;;;;;10.45;5.75;;;;;;;;;;5047075;28;20689;-70
2023/04/05 01:20:19;;;;;;;11.23;6.75;;;;;;;;;;5069596;28;20016;-71
2023/04/05 01:22:50;;;;;;;12.43;6.35;;;;;;;;;;5057041;28;20486;-69
2023/04/05 01:25:35;;;;;;;10.52;6.20;;;;;;;;;;5049154;28;20037;-71
2023/04/05 01:28:11;;;;;;;9.75;6.22;;;;;;;;;;5063889;28;20028;-69
2023/04/05 01:30:39;;;;;;;12.60;6.38;;;;;;;;;;5060331;28;20038;-70
2023/04/05 01:33:24;;;;;;;15.25;7.30;;;;;;;;;;5044638;28;20037;-70
2023/04/05 01:35:51;;;;;;;13.70;5.93;;;;;;;;;;5064436;28;20210;-70
2023/04/05 01:38:19;;;;;;;11.88;5.97;;;;;;;;;;5060676;28;20032;-71
2023/04/05 01:40:44;;;;;;;13.60;6.68;;;;;;;;;;5067119;28;20024;-71
2023/04/05 01:43:13;;;;;;;12.40;6.25;;;;;;;;;;5063597;28;20753;-71
2023/04/05 01:45:39;;;;;;;12.32;6.57;;;;;;;;;;5063813;28;20064;-72
2023/04/05 01:48:05;;;;;;;13.13;6.35;;;;;;;;;;5065928;28;20096;-71
2023/04/05 01:50:30;;;;;;;13.32;6.38;;;;;;;;;;5080114;28;20510;-71
2023/04/05 01:52:56;;;;;;;10.13;6.43;;;;;;;;;;5052498;28;20031;-71
2023/04/05 01:55:21;;;;;;;12.20;6.73;;;;;;;;;;5059340;28;20020;-71
2023/04/05 01:57:46;;;;;;;11.60;6.97;;;;;;;;;;5057685;28;20028;-71
2023/04/05 02:00:12;;;;;;;15.07;6.97;;;;;;;;;;5062255;28;20277;-72
2023/04/05 02:02:37;;;;;;;10.48;6.53;;;;;;;;;;5063883;28;20589;-72
2023/04/05 02:05:02;;;;;;;11.80;6.70;;;;;;;;;;5066812;28;20031;-71
2023/04/05 02:07:27;;;;;;;10.93;7.13;;;;;;;;;;5050793;28;20031;-70
2023/04/05 02:09:53;;;;;;;11.40;7.07;;;;;;;;;;5080178;28;20028;-70
2023/04/05 02:12:18;;;;;;;10.03;6.47;;;;;;;;;;5066131;28;20273;-71
2023/04/05 02:14:43;;;;;;;11.65;6.50;;;;;;;;;;5058475;28;20114;-71
2023/04/05 02:17:09;;;;;;;11.23;6.83;;;;;;;;;;5076410;28;20195;-71
2023/04/05 02:19:36;;;;;;;14.02;7.22;;;;;;;;;;5049087;28;20323;-71
2023/04/05 02:22:01;;;;;;;12.18;7.22;;;;;;;;;;5060687;28;20028;-71
2023/04/05 02:24:26;;;;;;;12.38;6.63;;;;;;;;;;5058007;28;20041;-70
2023/04/05 02:26:51;;;;;;;14.13;7.80;;;;;;;;;;5055810;28;20024;-70
2023/04/05 02:29:17;;;;;;;12.63;7.07;;;;;;;;;;5043468;28;20028;-71
2023/04/05 02:31:42;;;;;;;12.73;7.23;;;;;;;;;;5060907;28;20812;-71
2023/04/05 02:34:08;;;;;;;15.37;7.43;;;;;;;;;;5063264;28;20328;-70
2023/04/05 02:36:33;;;;;;;12.32;7.25;;;;;;;;;;5059716;28;20025;-71
2023/04/05 02:38:58;;;;;;;12.50;7.28;;;;;;;;;;5059608;28;20040;-71
2023/04/05 02:41:24;;;;;;;13.40;7.77;;;;;;;;;;5059562;28;20033;-72
2023/04/05 02:43:50;;;;;;;12.77;7.03;;;;;;;;;;5049266;28;20452;-70
2023/04/05 02:46:15;;;;;;;17.00;7.57;;;;;;;;;;5060113;28;20112;-71
2023/04/05 02:48:40;;;;;;;13.20;7.30;;;;;;;;;;5048802;28;20292;-73
2023/04/05 02:51:06;;;;;;;13.45;7.43;;;;;;;;;;5046280;28;20247;-70
2023/04/05 02:53:31;;;;;;;11.80;7.38;;;;;;;;;;5044143;28;20422;-71
2023/04/05 02:55:56;;;;;;;13.77;7.80;;;;;;;;;;5062904;28;20044;-73
2023/04/05 02:58:22;;;;;;;16.17;8.10;;;;;;;;;;5071027;28;20303;-72
2023/04/05 03:00:49;;;;;;;16.20;7.13;;;;;;;;;;5051006;28;20732;-73
2023/04/05 03:03:16;;;;;;;14.52;7.35;;;;;;;;;;5063107;28;20025;-72
2023/04/05 03:05:42;;;;;;;16.20;8.43;;;;;;;;;;5068530;28;20050;-73
2023/04/05 03:08:07;;;;;;;13.95;7.45;;;;;;;;;;5047877;28;20033;-73
2023/04/05 03:10:34;;;;;;;11.20;7.13;;;;;;;;;;5051457;28;20032;-72
2023/04/05 03:13:00;;;;;;;14.85;7.93;;;;;;;;;;5062087;28;20032;-73
2023/04/05 03:15:26;;;;;;;12.50;7.07;;;;;;;;;;5060067;28;20043;-72
2023/04/05 03:17:52;;;;;;;11.90;7.45;;;;;;;;;;5057958;28;20111;-70
2023/04/05 03:20:17;;;;;;;11.77;7.13;;;;;;;;;;5060673;28;20028;-72
2023/04/05 03:22:42;;;;;;;12.55;7.07;;;;;;;;;;5058767;28;20280;-72
2023/04/05 03:25:08;;;;;;;13.93;7.95;;;;;;;;;;5049343;28;20039;-71
2023/04/05 03:27:33;;;;;;;11.15;7.43;;;;;;;;;;5066852;28;20028;-71
2023/04/05 03:29:58;;;;;;;11.50;6.73;;;;;;;;;;5053516;28;20879;-71
2023/04/05 03:32:23;;;;;;;12.40;7.70;;;;;;;;;;5068895;28;20280;-72
2023/04/05 03:34:49;;;;;;;13.97;8.10;;;;;;;;;;5043972;28;20067;-71
2023/04/05 03:37:14;;;;;;;16.40;7.87;;;;;;;;;;5087162;28;20448;-71
2023/04/05 03:39:39;;;;;;;14.77;8.17;;;;;;;;;;5065170;28;20277;-70
2023/04/05 03:42:04;;;;;;;14.63;7.97;;;;;;;;;;5066096;28;20276;-71
2023/04/05 03:44:30;;;;;;;13.17;7.43;;;;;;;;;;5062702;28;20047;-71
2023/04/05 03:46:55;;;;;;;14.10;7.95;;;;;;;;;;5052492;28;20279;-71
2023/04/05 03:49:20;;;;;;;22.80;10.50;;;;;;;;;;5067942;28;20112;-70
2023/04/05 03:51:46;;;;;;;20.48;9.68;;;;;;;;;;5060859;28;20368;-72
2023/04/05 03:54:11;;;;;;;25.85;12.20;;;;;;;;;;5060996;28;20051;-71
2023/04/05 03:56:37;;;;;;;19.08;9.30;;;;;;;;;;5060547;28;20026;-72
2023/04/05 03:59:02;;;;;;;18.65;9.30;;;;;;;;;;5062852;28;20025;-73
2023/04/05 04:01:28;;;;;;;15.00;8.30;;;;;;;;;;5060602;28;20033;-73
2023/04/05 04:03:54;;;;;;;13.48;8.32;;;;;;;;;;5062018;28;20021;-72
2023/04/05 04:06:19;;;;;;;16.25;7.70;;;;;;;;;;5081308;28;20114;-72
2023/04/05 04:08:44;;;;;;;13.15;7.85;;;;;;;;;;5075497;28;20024;-72
2023/04/05 04:11:10;;;;;;;13.27;8.00;;;;;;;;;;5059721;28;20063;-72
2023/04/05 04:13:35;;;;;;;15.35;7.90;;;;;;;;;;5059872;28;20029;-70
2023/04/05 04:16:01;;;;;;;16.08;8.18;;;;;;;;;;5049407;28;20045;-72
2023/04/05 04:18:26;;;;;;;13.97;7.90;;;;;;;;;;5048636;28;20033;-72
2023/04/05 04:20:51;;;;;;;14.80;8.73;;;;;;;;;;5066509;28;20792;-73
2023/04/05 04:23:18;;;;;;;15.30;8.07;;;;;;;;;;5061331;28;20284;-72
2023/04/05 04:25:44;;;;;;;13.98;8.40;;;;;;;;;;5064638;28;20751;-71
2023/04/05 04:28:11;;;;;;;15.80;8.52;;;;;;;;;;5064091;28;20118;-71
2023/04/05 04:30:37;;;;;;;14.32;8.45;;;;;;;;;;5048050;28;20480;-72
2023/04/05 04:33:03;;;;;;;13.70;7.75;;;;;;;;;;5047715;28;20028;-71
2023/04/05 04:35:30;;;;;;;13.73;8.63;;;;;;;;;;5062968;28;20056;-72
2023/04/05 04:37:56;;;;;;;14.48;8.23;;;;;;;;;;5060218;28;20031;-73
2023/04/05 04:40:24;;;;;;;16.15;8.88;;;;;;;;;;5062263;28;20020;-71
2023/04/05 04:42:50;;;;;;;16.08;8.23;;;;;;;;;;5044998;28;20037;-71
2023/04/05 04:45:16;;;;;;;13.82;8.02;;;;;;;;;;5064696;28;20028;-72
2023/04/05 04:47:45;;;;;;;15.18;7.82;;;;;;;;;;5049981;28;20060;-72
2023/04/05 04:50:11;;;;;;;15.57;9.00;;;;;;;;;;5049664;28;20114;-72
2023/04/05 04:52:37;;;;;;;17.10;8.18;;;;;;;;;;5053035;28;20112;-72
2023/04/05 04:55:04;;;;;;;17.08;7.68;;;;;;;;;;5061620;28;20025;-72
2023/04/05 04:57:29;;;;;;;15.43;8.98;;;;;;;;;;5060733;28;20021;-71
2023/04/05 04:59:55;;;;;;;16.83;9.60;;;;;;;;;;5052921;28;20028;-71
2023/04/05 05:02:23;;;;;;;15.07;8.57;;;;;;;;;;5060542;28;20024;-72
2023/04/05 05:04:49;;;;;;;17.50;8.20;;;;;;;;;;5065744;28;20286;-71
2023/04/05 05:07:14;;;;;;;13.47;7.87;;;;;;;;;;5078046;28;20108;-71
2023/04/05 05:09:39;;;;;;;18.60;9.20;;;;;;;;;;5051690;28;20278;-71
2023/04/05 05:12:05;;;;;;;14.18;7.85;;;;;;;;;;5067371;28;20029;-71
2023/04/05 05:14:33;;;;;;;19.05;9.10;;;;;;;;;;5067556;28;20423;-72
2023/04/05 05:16:58;;;;;;;18.10;9.07;;;;;;;;;;5052771;28;20041;-70
2023/04/05 05:19:23;;;;;;;16.58;8.38;;;;;;;;;;5053032;28;20036;-70
2023/04/05 05:21:49;;;;;;;13.50;7.97;;;;;;;;;;5065879;28;20437;-72
2023/04/05 05:24:14;;;;;;;16.30;7.82;;;;;;;;;;5059348;28;20175;-71
2023/04/05 05:26:40;;;;;;;24.63;11.18;;;;;;;;;;5044674;28;20450;-71
2023/04/05 05:29:05;;;;;;;20.10;10.63;;;;;;;;;;5047607;28;20449;-71
2023/04/05 05:31:31;;;;;;;14.63;8.60;;;;;;;;;;5058784;28;20025;-71
2023/04/05 05:33:57;;;;;;;15.10;7.70;;;;;;;;;;5059938;28;20805;-72
2023/04/05 05:36:22;;;;;;;18.77;7.50;;;;;;;;;;5064592;28;20037;-72
2023/04/05 05:38:47;;;;;;;13.80;7.43;;;;;;;;;;5063276;28;20074;-72
2023/04/05 05:41:13;;;;;;;12.35;7.75;;;;;;;;;;5053700;28;20717;-72
2023/04/05 05:43:38;;;;;;;16.23;7.68;;;;;;;;;;5067197;28;20032;-71
2023/04/05 05:46:03;;;;;;;17.63;7.60;;;;;;;;;;5063324;28;20021;-72
2023/04/05 05:48:28;;;;;;;16.02;8.00;;;;;;;;;;5064509;28;20333;-71
2023/04/05 05:50:55;;;;;;;18.60;9.07;;;;;;;;;;5065887;28;20066;-73
2023/04/05 05:53:20;;;;;;;14.05;7.43;;;;;;;;;;5044642;28;20032;-73
2023/04/05 05:55:46;;;;;;;14.98;7.80;;;;;;;;;;5048995;28;20051;-73
2023/04/05 05:58:11;;;;;;;14.27;7.63;;;;;;;;;;5048759;28;20495;-73
2023/04/05 06:00:37;;;;;;;13.10;6.97;;;;;;;;;;5047755;28;20025;-73
2023/04/05 06:03:03;;;;;;;13.02;6.85;;;;;;;;;;5059331;28;20115;-73
2023/04/05 06:05:28;;;;;;;12.82;7.10;;;;;;;;;;5063187;28;20099;-73
2023/04/05 06:07:54;;;;;;;18.52;6.88;;;;;;;;;;5054904;28;20024;-73
2023/04/05 06:10:19;;;;;;;11.30;6.32;;;;;;;;;;5064451;28;20608;-73
2023/04/05 06:12:44;;;;;;;15.43;6.78;;;;;;;;;;5039707;28;20468;-74
2023/04/05 06:15:10;;;;;;;14.07;6.90;;;;;;;;;;5049096;28;20082;-74
2023/04/05 06:17:40;;;;;;;12.10;6.30;;;;;;;;;;5069141;28;20052;-73
2023/04/05 06:20:06;;;;;;;12.98;6.93;;;;;;;;;;5050881;28;20038;-73
2023/04/05 06:22:32;;;;;;;12.57;6.18;;;;;;;;;;5072447;28;20032;-71
2023/04/05 06:24:57;;;;;;;10.27;6.47;;;;;;;;;;5076926;28;20111;-73
2023/04/05 06:27:23;;;;;;;10.20;6.20;;;;;;;;;;5048493;28;20730;-73
2023/04/05 06:29:48;;;;;;;12.93;6.60;;;;;;;;;;5059242;28;20281;-73
2023/04/05 06:32:13;;;;;;;11.95;6.55;;;;;;;;;;5059693;28;20029;-71
2023/04/05 06:34:38;;;;;;;13.10;7.32;;;;;;;;;;5046715;28;20036;-75
2023/04/05 06:37:05;;;;;;;13.18;6.80;;;;;;;;;;5060571;28;20029;-73
2023/04/05 06:39:30;;;;;;;11.65;6.90;;;;;;;;;;5048145;28;20043;-73
2023/04/05 06:41:56;;;;;;;11.55;6.65;;;;;;;;;;5067716;28;20032;-73
2023/04/05 06:44:21;;;;;;;9.98;5.82;;;;;;;;;;5047529;28;20032;-73
2023/04/05 06:46:47;;;;;;;15.57;6.60;;;;;;;;;;5063366;28;20108;-73
2023/04/05 06:49:12;;;;;;;15.77;7.90;;;;;;;;;;5059986;28;21018;-73
2023/04/05 06:51:37;;;;;;;13.65;6.90;;;;;;;;;;5058759;28;20288;-73
2023/04/05 06:54:02;;;;;;;12.30;6.37;;;;;;;;;;5065291;28;20052;-73
2023/04/05 06:56:28;;;;;;;14.43;7.40;;;;;;;;;;5058446;28;20343;-73
2023/04/05 06:58:54;;;;;;;12.77;6.20;;;;;;;;;;5065824;28;20350;-74
2023/04/05 07:01:19;;;;;;;16.45;8.07;;;;;;;;;;5073358;28;20028;-73
2023/04/05 07:03:45;;;;;;;17.85;7.85;;;;;;;;;;5082825;28;20091;-73
2023/04/05 07:06:10;;;;;;;19.48;8.63;;;;;;;;;;5068579;28;20023;-75
2023/04/05 07:08:36;;;;;;;17.20;8.70;;;;;;;;;;5089399;28;20368;-75
2023/04/05 07:11:01;;;;;;;11.85;6.93;;;;;;;;;;5071085;28;20032;-75
2023/04/05 07:13:26;;;;;;;12.35;6.53;;;;;;;;;;5080322;28;20575;-74
2023/04/05 07:15:58;;;;;;;15.63;7.50;;;;;;;;;;5051544;28;20053;-74
2023/04/05 07:18:23;;;;;;;11.63;6.70;;;;;;;;;;5058503;28;20092;-71
2023/04/05 07:20:48;;;;;;;13.35;7.43;;;;;;;;;;5067412;28;20409;-72
2023/04/05 07:23:13;;;;;;;19.10;7.07;;;;;;;;;;5062097;28;20490;-71
2023/04/05 07:25:39;;;;;;;12.18;5.60;;;;;;;;;;5047228;28;20056;-73
2023/04/05 07:28:05;;;;;;;11.27;6.22;;;;;;;;;;5052367;28;20036;-73
2023/04/05 07:30:30;;;;;;;13.73;6.88;;;;;;;;;;5089859;28;20054;-72
2023/04/05 07:32:57;;;;;;;11.80;6.28;;;;;;;;;;5055757;28;20028;-71
2023/04/05 07:35:22;;;;;;;13.05;6.40;;;;;;;;;;5062547;28;20502;-72
2023/04/05 07:37:47;;;;;;;13.55;6.40;;;;;;;;;;5066345;28;20131;-73
2023/04/05 07:40:13;;;;;;;10.30;5.70;;;;;;;;;;5061069;28;20068;-73
2023/04/05 07:42:38;;;;;;;12.37;6.37;;;;;;;;;;5048310;28;20278;-72
2023/04/05 07:45:04;;;;;;;13.75;7.15;;;;;;;;;;5046199;28;20355;-73
2023/04/05 07:47:31;;;;;;;10.82;6.78;;;;;;;;;;5065459;28;20032;-73
2023/04/05 07:49:56;;;;;;;12.32;6.35;;;;;;;;;;5066128;28;20039;-72
2023/04/05 07:52:22;;;;;;;12.73;6.77;;;;;;;;;;5056121;28;20032;-72
2023/04/05 07:54:48;;;;;;;22.97;9.40;;;;;;;;;;5066955;28;20056;-73
2023/04/05 07:57:17;;;;;;;14.68;7.72;;;;;;;;;;5052452;28;20302;-72
2023/04/05 07:59:42;;;;;;;15.55;7.72;;;;;;;;;;5066048;28;20036;-73
2023/04/05 08:02:08;;;;;;;16.85;8.43;;;;;;;;;;5068291;28;20036;-73
2023/04/05 08:04:33;;;;;;;12.00;6.97;;;;;;;;;;5069771;28;20389;-72
2023/04/05 08:06:58;;;;;;;14.95;7.93;;;;;;;;;;5063708;28;20285;-73
2023/04/05 08:09:23;;;;;;;13.07;7.70;;;;;;;;;;5058379;28;20426;-72
2023/04/05 08:11:49;;;;;;;15.20;8.03;;;;;;;;;;5061823;28;20270;-73
2023/04/05 08:14:14;;;;;;;17.30;9.82;;;;;;;;;;5052039;28;20029;-74
2023/04/05 08:16:40;;;;;;;13.82;7.15;;;;;;;;;;5064967;28;20102;-73
2023/04/05 08:19:05;;;;;;;18.43;8.53;;;;;;;;;;5069355;28;20111;-73
2023/04/05 08:21:30;;;;;;;15.63;8.02;;;;;;;;;;5062468;28;20770;-72
2023/04/05 08:23:57;;;;;;;14.98;7.70;;;;;;;;;;5081626;28;20054;-73
2023/04/05 08:26:22;;;;;;;16.45;7.60;;;;;;;;;;5061556;28;20024;-73
2023/04/05 08:28:47;;;;;;;14.90;7.47;;;;;;;;;;5064735;28;20025;-72
2023/04/05 08:31:13;;;;;;;19.00;8.75;;;;;;;;;;5067133;28;20047;-73
2023/04/05 08:33:38;;;;;;;13.70;7.90;;;;;;;;;;5045692;28;20797;-73
2023/04/05 08:36:05;;;;;;;13.77;7.97;;;;;;;;;;5045321;28;20591;-73
2023/04/05 08:38:30;;;;;;;13.57;7.28;;;;;;;;;;5063184;28;20090;-73
2023/04/05 08:40:56;;;;;;;14.02;7.63;;;;;;;;;;5063826;28;20032;-71
2023/04/05 08:43:24;;;;;;;17.50;8.73;;;;;;;;;;5058586;28;20078;-71
2023/04/05 08:45:50;;;;;;;14.32;7.80;;;;;;;;;;5048436;28;20509;-72
2023/04/05 08:48:16;;;;;;;13.15;7.43;;;;;;;;;;5068890;28;20024;-72
2023/04/05 08:50:41;;;;;;;21.90;9.15;;;;;;;;;;5066639;28;20470;-72
2023/04/05 08:53:09;;;;;;;25.35;10.63;;;;;;;;;;5072231;28;20028;-71
2023/04/05 08:55:35;;;;;;;16.83;8.35;;;;;;;;;;5065831;28;20060;-72
2023/04/05 08:58:03;;;;;;;13.75;7.90;;;;;;;;;;5066807;28;20062;-72
2023/04/05 09:00:28;;;;;;;16.45;8.82;;;;;;;;;;5047205;28;20028;-72
2023/04/05 09:02:55;;;;;;;14.48;8.43;;;;;;;;;;5061391;28;20034;-71
2023/04/05 09:05:22;;;;;;;15.43;8.15;;;;;;;;;;5061094;28;20071;-72
2023/04/05 09:07:47;;;;;;;16.88;7.93;;;;;;;;;;5057094;28;20028;-71
2023/04/05 09:10:13;;;;;;;13.70;7.55;;;;;;;;;;5040135;28;20027;-72
2023/04/05 09:12:40;;;;;;;10.98;7.00;;;;;;;;;;5066814;28;20021;-72
2023/04/05 09:15:06;;;;;;;13.00;6.97;;;;;;;;;;5078582;28;20576;-71
2023/04/05 09:17:31;;;;;;;15.35;8.15;;;;;;;;;;5058588;28;20399;-73
2023/04/05 09:19:56;;;;;;;19.55;9.25;;;;;;;;;;5042549;28;20111;-72
2023/04/05 09:22:21;;;;;;;16.00;8.43;;;;;;;;;;5043613;28;20036;-71
2023/04/05 09:24:47;;;;;;;14.87;8.03;;;;;;;;;;5039657;28;20277;-72
2023/04/05 09:27:13;;;;;;;15.98;7.70;;;;;;;;;;5046127;28;20281;-72
2023/04/05 09:29:40;;;;;;;12.48;6.88;;;;;;;;;;5040966;28;20506;-71
2023/04/05 09:32:06;;;;;;;15.82;7.85;;;;;;;;;;5037913;28;20082;-72
2023/04/05 09:34:32;;;;;;;12.75;7.68;;;;;;;;;;5046028;28;20064;-73
2023/04/05 09:36:58;;;;;;;16.77;8.93;;;;;;;;;;5042307;28;20053;-72
2023/04/05 09:39:28;;;;;;;16.63;7.45;;;;;;;;;;5039888;28;20059;-72
2023/04/05 09:42:05;;;;;;;19.95;8.10;;;;;;;;;;5046179;28;20029;-72
2023/04/05 09:44:50;;;;;;;14.25;7.90;;;;;;;;;;5048661;28;20033;-72
2023/04/05 09:47:18;;;;;;;17.30;7.88;;;;;;;;;;5049570;28;20039;-72
2023/04/05 09:49:43;;;;;;;15.15;7.65;;;;;;;;;;5047162;28;20036;-71
2023/04/05 09:52:28;;;;;;;21.98;7.78;;;;;;;;;;5048355;28;20020;-72
2023/04/05 09:54:55;;;;;;;13.27;7.03;;;;;;;;;;5031449;28;20048;-71
2023/04/05 09:57:21;;;;;;;14.80;7.00;;;;;;;;;;5038696;28;20063;-71
2023/04/05 09:59:46;;;;;;;16.63;7.72;;;;;;;;;;5043857;28;20712;-72
2023/04/05 10:02:12;;;;;;;14.93;7.50;;;;;;;;;;5042747;28;20104;-72
2023/04/05 10:04:38;;;;;;;14.52;7.65;;;;;;;;;;5042402;28;20030;-72
2023/04/05 10:07:03;;;;;;;12.02;6.55;;;;;;;;;;5042062;28;20168;-71
2023/04/05 10:09:28;;;;;;;12.00;6.17;;;;;;;;;;5046776;28;20108;-72
2023/04/05 10:11:54;;;;;;;10.43;7.07;;;;;;;;;;5044617;28;20273;-72
2023/04/05 10:14:20;;;;;;;10.75;6.40;;;;;;;;;;5043204;28;20275;-71
2023/04/05 10:16:52;;;;;;;11.10;6.60;;;;;;;;;;5054384;28;20466;-72
2023/04/05 10:19:22;;;;;;;16.20;7.40;;;;;;;;;;5061423;28;20024;-73
2023/04/05 10:21:48;;;;;;;16.27;7.70;;;;;;;;;;5047415;28;20629;-73
2023/04/05 10:24:23;;;;;;;18.05;8.35;;;;;;;;;;5058901;28;20119;-72
2023/04/05 10:26:57;;;;;;;12.07;7.43;;;;;;;;;;5057649;28;20422;-72
2023/04/05 10:29:28;;;;;;;12.73;7.47;;;;;;;;;;5060277;28;20064;-72
2023/04/05 10:32:14;;;;;;;14.00;7.75;;;;;;;;;;5060548;28;20686;-72
2023/04/05 10:34:42;;;;;;;9.43;6.65;;;;;;;;;;5066688;28;20085;-73
2023/04/05 10:37:08;;;;;;;11.55;6.93;;;;;;;;;;5067382;28;20029;-73
2023/04/05 10:39:37;;;;;;;17.55;6.90;;;;;;;;;;5070855;28;20078;-72
2023/04/05 10:42:08;;;;;;;10.32;6.63;;;;;;;;;;5051455;28;20073;-72
2023/04/05 10:44:35;;;;;;;12.00;6.60;;;;;;;;;;5066067;28;20039;-74
2023/04/05 10:47:01;;;;;;;11.40;6.40;;;;;;;;;;5053442;28;20081;-73
2023/04/05 10:49:39;;;;;;;10.65;6.15;;;;;;;;;;5061999;28;20051;-72
2023/04/05 10:52:05;;;;;;;10.50;6.65;;;;;;;;;;5045312;28;20085;-72
2023/04/05 10:54:35;;;;;;;11.43;6.57;;;;;;;;;;5065712;28;20464;-71
2023/04/05 10:57:02;;;;;;;10.07;6.03;;;;;;;;;;5065594;28;20013;-72
2023/04/05 10:59:28;;;;;;;12.45;6.32;;;;;;;;;;5064115;28;20063;-73
2023/04/05 11:01:54;;;;;;;13.18;6.47;;;;;;;;;;5048001;28;20106;-72
2023/04/05 11:04:19;;;;;;;8.85;5.80;;;;;;;;;;5066563;28;20031;-73
2023/04/05 11:06:48;;;;;;;12.10;6.32;;;;;;;;;;5070076;28;20037;-71
2023/04/05 11:09:15;;;;;;;9.82;6.13;;;;;;;;;;5050260;28;20120;-71
2023/04/05 11:11:41;;;;;;;11.15;6.93;;;;;;;;;;5051182;28;20028;-70
2023/04/05 11:14:19;;;;;;;7.80;5.30;;;;;;;;;;5050507;28;20031;-72
2023/04/05 11:16:49;;;;;;;11.23;6.30;;;;;;;;;;5079437;28;20036;-73
2023/04/05 11:19:17;;;;;;;11.18;5.80;;;;;;;;;;5048015;28;20059;-73
2023/04/05 11:21:43;;;;;;;10.45;6.45;;;;;;;;;;5054179;28;20021;-73
2023/04/05 11:24:11;;;;;;;11.40;5.88;;;;;;;;;;5073385;28;20063;-70
2023/04/05 11:26:39;;;;;;;8.07;5.43;;;;;;;;;;5068647;28;20100;-71
2023/04/05 11:29:05;;;;;;;9.65;5.85;;;;;;;;;;5057695;28;20034;-72
2023/04/05 11:31:30;;;;;;;8.73;5.70;;;;;;;;;;5057963;28;20123;-71
2023/04/05 11:33:58;;;;;;;9.93;6.40;;;;;;;;;;5052786;28;20506;-70
2023/04/05 11:36:31;;;;;;;11.27;6.30;;;;;;;;;;5051688;28;20028;-71
2023/04/05 11:39:15;;;;;;;11.68;5.47;;;;;;;;;;5068793;28;20021;-71
2023/04/05 11:41:40;;;;;;;9.45;6.05;;;;;;;;;;5059077;28;20034;-70
2023/04/05 11:44:12;;;;;;;11.60;6.22;;;;;;;;;;5052948;28;20701;-71
2023/04/05 11:46:38;;;;;;;13.85;6.22;;;;;;;;;;5059228;28;20082;-69
2023/04/05 11:49:11;;;;;;;8.77;5.97;;;;;;;;;;5060381;28;20033;-69
2023/04/05 11:51:36;;;;;;;11.80;7.00;;;;;;;;;;5054610;28;20284;-69
2023/04/05 11:54:01;;;;;;;11.95;6.65;;;;;;;;;;5063885;28;20044;-70
2023/04/05 11:56:27;;;;;;;10.38;6.70;;;;;;;;;;5051764;28;20547;-70
2023/04/05 11:58:56;;;;;;;15.20;7.07;;;;;;;;;;5065316;28;20046;-71
2023/04/05 12:01:22;;;;;;;25.23;9.80;;;;;;;;;;5054809;28;20432;-71
2023/04/05 12:03:51;;;;;;;15.90;7.73;;;;;;;;;;5069236;28;20032;-72
2023/04/05 12:06:20;;;;;;;13.60;7.63;;;;;;;;;;5065748;28;20032;-72
2023/04/05 12:08:49;;;;;;;13.15;7.38;;;;;;;;;;5042292;28;20094;-72
2023/04/05 12:11:15;;;;;;;10.47;6.50;;;;;;;;;;5064910;28;20108;-71
2023/04/05 12:13:40;;;;;;;12.25;6.70;;;;;;;;;;5043927;28;20359;-72
2023/04/05 12:16:06;;;;;;;12.33;7.17;;;;;;;;;;5039347;28;20053;-71
2023/04/05 12:18:33;;;;;;;18.20;8.52;;;;;;;;;;5048035;28;20282;-70
2023/04/05 12:20:58;;;;;;;21.65;10.18;;;;;;;;;;5038075;28;20572;-72
2023/04/05 12:23:24;;;;;;;19.30;9.75;;;;;;;;;;5048516;28;20033;-72
2023/04/05 12:25:50;;;;;;;16.95;8.13;;;;;;;;;;5044039;28;20036;-72
2023/04/05 12:28:15;;;;;;;24.25;9.98;;;;;;;;;;5045641;28;20790;-69
2023/04/05 12:30:47;;;;;;;12.57;7.00;;;;;;;;;;5043053;28;20029;-73
2023/04/05 12:33:13;;;;;;;14.25;7.43;;;;;;;;;;5044871;28;20024;-72
2023/04/05 12:35:38;;;;;;;15.37;8.03;;;;;;;;;;5041955;28;20044;-74
2023/04/05 12:38:04;;;;;;;13.63;7.57;;;;;;;;;;5041033;28;20034;-72
2023/04/05 12:40:31;;;;;;;15.43;7.90;;;;;;;;;;5043989;28;20413;-72
2023/04/05 12:43:04;;;;;;;12.95;7.25;;;;;;;;;;5047367;28;20484;-74
2023/04/05 12:45:33;;;;;;;20.02;9.93;;;;;;;;;;5039372;28;20059;-73
2023/04/05 12:47:58;;;;;;;16.85;8.20;;;;;;;;;;5044310;28;20762;-75
2023/04/05 12:50:25;;;;;;;14.57;8.50;;;;;;;;;;5040979;28;20045;-74
2023/04/05 12:52:54;;;;;;;14.27;7.50;;;;;;;;;;5041256;28;20029;-75
2023/04/05 12:55:20;;;;;;;14.48;8.38;;;;;;;;;;5041560;28;20668;-74
2023/04/05 12:57:47;;;;;;;12.65;7.32;;;;;;;;;;5041976;28;20024;-74
2023/04/05 13:00:13;;;;;;;16.33;8.70;;;;;;;;;;5042740;28;20029;-74
2023/04/05 13:02:38;;;;;;;14.75;7.75;;;;;;;;;;5043171;28;20029;-71
2023/04/05 13:05:04;;;;;;;14.60;8.17;;;;;;;;;;5045389;28;20032;-71
2023/04/05 13:07:30;;;;;;;17.88;8.00;;;;;;;;;;5040409;28;20039;-71
2023/04/05 13:09:58;;;;;;;17.58;8.45;;;;;;;;;;5042890;28;20052;-71
2023/04/05 13:12:23;;;;;;;16.73;8.47;;;;;;;;;;5045561;28;20044;-72
2023/04/05 13:14:51;;;;;;;16.20;8.33;;;;;;;;;;5042364;28;20025;-71
2023/04/05 13:17:17;;;;;;;12.75;7.97;;;;;;;;;;5063835;28;20297;-73
2023/04/05 13:19:42;;;;;;;27.07;11.23;;;;;;;;;;5066390;28;20039;-73
2023/04/05 13:22:07;;;;;;;25.70;11.83;;;;;;;;;;5065267;28;20678;-73
2023/04/05 13:24:32;;;;;;;25.63;11.53;;;;;;;;;;5052613;28;20286;-72
2023/04/05 13:26:57;;;;;;;20.13;10.60;;;;;;;;;;5061011;28;20025;-73
2023/04/05 13:29:23;;;;;;;15.83;9.10;;;;;;;;;;5060556;28;20037;-70
2023/04/05 13:31:48;;;;;;;17.43;9.73;;;;;;;;;;5053690;28;20470;-67
2023/04/05 13:34:13;;;;;;;19.97;11.50;;;;;;;;;;5054102;28;20308;-72
2023/04/05 13:36:38;;;;;;;18.42;9.45;;;;;;;;;;5063901;28;20036;-74
2023/04/05 13:39:04;;;;;;;18.83;10.23;;;;;;;;;;5048377;28;20455;-74
2023/04/05 13:41:29;;;;;;;24.25;9.60;;;;;;;;;;5074983;28;20334;-75
2023/04/05 13:43:54;;;;;;;17.25;9.25;;;;;;;;;;5065106;28;20037;-74
2023/04/05 13:46:20;;;;;;;35.88;13.07;;;;;;;;;;5060856;28;20024;-74
2023/04/05 13:48:45;;;;;;;19.53;9.60;;;;;;;;;;5063855;28;20023;-74
2023/04/05 13:51:10;;;;;;;32.13;13.00;;;;;;;;;;5067152;28;20717;-68
2023/04/05 13:53:35;;;;;;;15.05;8.27;;;;;;;;;;5065805;28;20277;-68
2023/04/05 13:56:01;;;;;;;14.93;8.50;;;;;;;;;;5047828;28;20904;-72
2023/04/05 13:58:26;;;;;;;14.93;7.63;;;;;;;;;;5054436;28;20055;-74
2023/04/05 14:00:51;;;;;;;14.13;8.17;;;;;;;;;;5059688;28;20281;-73
2023/04/05 14:03:17;;;;;;;12.40;7.60;;;;;;;;;;5052610;28;20703;-74
2023/04/05 14:05:42;;;;;;;16.27;7.93;;;;;;;;;;5061240;28;20031;-73
2023/04/05 14:08:07;;;;;;;11.33;7.03;;;;;;;;;;5059747;28;20028;-74
2023/04/05 14:10:32;;;;;;;19.97;9.90;;;;;;;;;;5056260;28;20313;-74
2023/04/05 14:12:58;;;;;;;22.70;10.00;;;;;;;;;;5046433;28;20281;-74
2023/04/05 14:15:23;;;;;;;19.88;9.30;;;;;;;;;;5064598;28;20334;-71
2023/04/05 14:17:50;;;;;;;22.75;9.02;;;;;;;;;;5045677;28;20045;-70
2023/04/05 14:20:15;;;;;;;20.13;9.80;;;;;;;;;;5063891;28;20028;-71
2023/04/05 14:22:40;;;;;;;16.83;9.50;;;;;;;;;;5044530;28;20062;-71
2023/04/05 14:25:07;;;;;;;24.57;10.90;;;;;;;;;;5058667;28;20273;-70
2023/04/05 14:27:32;;;;;;;19.38;10.32;;;;;;;;;;5055342;28;20052;-71